Tiempo atmosférico en la estación meteorológica de Montalbán, Dga, Teruel (885 m.)



Fecha
DESCASC
Temp. máxima en grados centígrados (hora)
DESCASC
Temp. mínima en grados centígrados (hora)
DESCASC
Temp. media en grados centígrados
DESCASC
Racha de viento máxima en m/sg (hora)
DESCASC
Velocidad máxima media en intervalos de 10 minutos(hora)
DESCASC
Precipitaciones diarias en mm
DESCASC
Precipitaciones de 00:00 a 06:00 en mm
DESCASC
Precipitaciones de 06:00 a 12:00 en mm
DESCASC
Precipitaciones de 12:00 a 18:00 en mm
DESCASC
Precipitaciones de 18:00 a 24:00 en mm
DESCASC

Gráficas

Temp. máximas Temp. mínimas Temp. medias Precipitaciones Rachas de viento máximas Velocidades máximas media en intervalos de 10 minutos

Datos horarios

Fecha y hora oficial Temperatura (ºC) Velocidad del viento (km/h) Dirección del viento Racha (km/h) Dirección de racha Precipitación (mm) Presión (hPa) Tendencia (hPa) Humedad (%)
2019-07-15 23:00:00 20.5 3 Sudeste 14 Oeste 0 -- -- 47
2019-07-15 22:00:00 22.3 5 Oeste 16 Noroeste 0 -- -- 42
2019-07-15 21:00:00 24.6 9 Noroeste 27 Noroeste 0 -- -- 36
2019-07-15 20:00:00 25.8 13 Oeste 32 Oeste 0 -- -- 35
2019-07-15 19:00:00 27.1 14 Oeste 37 Noroeste 0 -- -- 32
2019-07-15 18:00:00 27.4 18 Oeste 36 Oeste 0 -- -- 31
2019-07-15 17:00:00 26.9 13 Oeste 30 Noroeste 0 -- -- 32
2019-07-15 16:00:00 26.8 16 Oeste 31 Noroeste 0 -- -- 31
2019-07-15 15:00:00 26 13 Oeste 32 Noroeste 0 -- -- 32
2019-07-15 14:00:00 25.2 11 Oeste 29 Oeste 0 -- -- 34
2019-07-15 13:00:00 24 11 Oeste 28 Noroeste 0 -- -- 37
2019-07-15 12:00:00 22.9 9 Noroeste 28 Noroeste 0 -- -- 39
2019-07-15 11:00:00 20.9 14 Oeste 28 Noroeste 0 -- -- 43
2019-07-15 10:00:00 17.3 3 Sudoeste 11 Sudeste 0 -- -- 60
2019-07-15 09:00:00 13.3 0 Calma 6 Sudeste 0 -- -- 76
2019-07-15 08:00:00 11.5 2 Este 6 Sudeste 0 -- -- 81
2019-07-15 07:00:00 11.9 0 Calma 4 Noroeste 0 -- -- 81
2019-07-15 06:00:00 12.4 0 Calma 6 Noroeste 0 -- -- 80
2019-07-15 05:00:00 13.3 3 Sudeste 6 Sudeste 0 -- -- 76
2019-07-15 04:00:00 14.2 0 Calma 4 Oeste 0 -- -- 73
2019-07-15 03:00:00 15.2 3 Nordeste 7 Norte 0 -- -- 69
2019-07-15 02:00:00 16.5 0 Calma 5 Norte 0 -- -- 65
2019-07-15 01:00:00 17.6 0 Calma 6 Oeste 0 -- -- 60
2019-07-15 00:00:00 18.9 2 Oeste 9 Sudeste 0 -- -- 55
2019-07-14 23:00:00 20 2 Oeste 23 Oeste 0 -- -- 54
2019-07-14 22:00:00 21.7 12 Oeste 25 Noroeste 0 -- -- 53
2019-07-14 21:00:00 23.9 13 Oeste 23 Oeste 0 -- -- 51
2019-07-14 20:00:00 25.5 9 Noroeste 31 Noroeste 0 -- -- 50
2019-07-14 19:00:00 25.2 10 Noroeste 24 Noroeste 0 -- -- 51
2019-07-14 18:00:00 24.9 13 Oeste 28 Noroeste 0 -- -- 52
2019-07-14 17:00:00 24.8 9 Oeste 28 Oeste 0 -- -- 52
2019-07-14 16:00:00 23.7 10 Oeste 22 Noroeste 0 -- -- 56
2019-07-14 15:00:00 21.5 8 Oeste 20 Oeste 0 -- -- 67
2019-07-14 14:00:00 21.5 4 Norte 15 Noroeste 0 -- -- 68
2019-07-14 13:00:00 20.4 6 Oeste 17 Noroeste 0 -- -- 73
2019-07-14 12:00:00 19.8 7 Oeste 19 Noroeste 0 -- -- 74
2019-07-14 11:00:00 19.5 4 Noroeste 15 Oeste 0 -- -- 77
2019-07-14 10:00:00 18.7 8 Oeste 17 Oeste 0 -- -- 80
2019-07-14 09:00:00 18.7 3 Oeste 5 Oeste 0 -- -- 75
2019-07-14 08:00:00 18.2 0 Calma 8 Sudoeste 0 -- -- 77
2019-07-14 07:00:00 18.1 4 Sudoeste 11 Sudoeste 0 -- -- 78
2019-07-14 06:00:00 17.8 4 Sudeste 13 Sudeste 0 -- -- 81
2019-07-14 05:00:00 17.9 3 Sudeste 8 Este 0 -- -- 80
2019-07-14 04:00:00 18.5 0 Calma 13 Noroeste 0 -- -- 77
2019-07-14 03:00:00 19.7 0 Calma 23 Noroeste 0 -- -- 74
2019-07-14 02:00:00 20.6 8 Sudoeste 18 Sudeste 0 -- -- 68
2019-07-14 01:00:00 20.3 2 Este 9 Noroeste 0 -- -- 64
2019-07-14 00:00:00 20.7 3 Sudeste 7 Sudeste 0 -- -- 64
2019-07-13 23:00:00 22.2 0 Calma 6 Nordeste 0 -- -- 57
2019-07-13 22:00:00 24.1 3 Este 7 Sudeste 0 -- -- 51
2019-07-13 21:00:00 25.5 3 Oeste 13 Oeste 0 -- -- 48
2019-07-13 20:00:00 29.8 2 Sur 13 Sudeste 0 -- -- 33
2019-07-13 19:00:00 31.1 7 Sur 30 Oeste 0 -- -- 32
2019-07-13 18:00:00 30.3 10 Sudoeste 32 Noroeste 0 -- -- 37
2019-07-13 17:00:00 32.6 4 Sur 12 Sudeste 0 -- -- 32
2019-07-13 16:00:00 32.7 5 Oeste 18 Noroeste 0 -- -- 32
2019-07-13 15:00:00 30.3 10 Noroeste 22 Noroeste 0 -- -- 34
2019-07-13 14:00:00 29.8 7 Noroeste 18 Oeste 0 -- -- 34
2019-07-13 13:00:00 28.9 3 Sudoeste 13 Norte 0 -- -- 35
2019-07-13 12:00:00 27.9 5 Oeste 14 Oeste 0 -- -- 37
2019-07-13 11:00:00 25.5 3 Noroeste 6 Oeste 0 -- -- 43
2019-07-13 10:00:00 21.1 0 Calma 5 Sudeste 0 -- -- 58
2019-07-13 09:00:00 18.7 0 Calma 4 Este 0 -- -- 65
2019-07-13 08:00:00 17.4 0 Calma 4 Este 0 -- -- 69
2019-07-13 07:00:00 17.4 0 Calma 4 Norte 0 -- -- 69
2019-07-13 06:00:00 17.9 2 Este 4 Sudeste 0 -- -- 66
2019-07-13 05:00:00 18.6 0 Calma 3 Noroeste 0 -- -- 64
2019-07-13 04:00:00 19.6 0 Calma 4 Sudeste 0 -- -- 59
2019-07-13 03:00:00 20.5 2 Sudeste 4 Sudeste 0 -- -- 56
2019-07-13 02:00:00 22.1 0 Calma 3 Norte 0 -- -- 50
2019-07-13 01:00:00 23.3 3 Sudeste 5 Sudeste 0 -- -- 46
2019-07-13 00:00:00 25.4 3 Sudeste 6 Norte 0 -- -- 40
2019-07-12 23:00:00 28 3 Este 9 Este 0 -- -- 35
2019-07-12 22:00:00 29.4 2 Sudeste 5 Sudeste 0 -- -- 33
2019-07-12 21:00:00 32.3 0 Calma 5 Este 0 -- -- 30
2019-07-12 20:00:00 34.1 2 Oeste 16 Norte 0 -- -- 26
2019-07-12 19:00:00 34.1 7 Noroeste 17 Noroeste 0 -- -- 26
2019-07-12 18:00:00 34.7 4 Sur 22 Oeste 0 -- -- 26
2019-07-12 17:00:00 35.5 7 Noroeste 17 Norte 0 -- -- 27
2019-07-12 16:00:00 35 8 Noroeste 22 Noroeste 0 -- -- 26
2019-07-12 15:00:00 34.2 6 Noroeste 21 Noroeste 0 -- -- 28
2019-07-12 14:00:00 33 5 Noroeste 18 Noroeste 0 -- -- 28
2019-07-12 13:00:00 33 7 Noroeste 17 Noroeste 0 -- -- 25
2019-07-12 12:00:00 30.1 4 Noroeste 8 Noroeste 0 -- -- 35
2019-07-12 11:00:00 25.6 0 Calma 4 Noroeste 0 -- -- 47
2019-07-12 10:00:00 20.2 0 Calma 3 Sudeste 0 -- -- 66
2019-07-12 09:00:00 16.7 0 Calma 4 Sudeste 0 -- -- 76
2019-07-12 08:00:00 15.6 0 Calma 3 Sur 0 -- -- 77
2019-07-12 07:00:00 15.8 0 Calma 4 Sudeste 0 -- -- 75
2019-07-12 06:00:00 16.1 0 Calma 3 Sudeste 0 -- -- 75
2019-07-12 05:00:00 17 0 Calma 3 Sudeste 0 -- -- 72
2019-07-12 04:00:00 18 0 Calma 4 Sudeste 0 -- -- 68
2019-07-12 03:00:00 19.1 0 Calma 3 Sudeste 0 -- -- 65
2019-07-12 02:00:00 20.2 0 Calma 2 Noroeste 0 -- -- 62
2019-07-12 01:00:00 21.5 0 Calma 5 Noroeste 0 -- -- 58
2019-07-12 00:00:00 23 0 Calma 2 Noroeste 0 -- -- 54
2019-07-11 23:00:00 25 0 Calma 6 Este 0 -- -- 47
2019-07-11 22:00:00 27.2 3 Este 8 Este 0 -- -- 40
2019-07-11 21:00:00 30.5 0 Calma 11 Noroeste 0 -- -- 37
2019-07-11 20:00:00 32.1 4 Sur 18 Noroeste 0 -- -- 34
2019-07-11 19:00:00 32.4 5 Sudoeste 15 Este 0 -- -- 34
2019-07-11 18:00:00 33.7 3 Sudeste 13 Oeste 0 -- -- 27
2019-07-11 17:00:00 33.1 4 Oeste 18 Noroeste 0 -- -- 26
2019-07-11 16:00:00 32.6 6 Noroeste 18 Norte 0 -- -- 26
2019-07-11 15:00:00 31.6 6 Oeste 19 Oeste 0 -- -- 29
2019-07-11 14:00:00 30.8 6 Oeste 18 Noroeste 0 -- -- 31
2019-07-11 13:00:00 29.8 8 Noroeste 17 Oeste 0 -- -- 33
2019-07-11 12:00:00 27.9 5 Noroeste 12 Noroeste 0 -- -- 44
2019-07-11 11:00:00 24.4 3 Noroeste 8 Noroeste 0 -- -- 58
2019-07-11 10:00:00 19.7 0 Calma 3 Noroeste 0 -- -- 71
2019-07-11 09:00:00 15.9 0 Calma 5 Sudeste 0 -- -- 81
2019-07-11 08:00:00 14.4 2 Sudoeste 4 Sudeste 0 -- -- 83
2019-07-11 07:00:00 14.3 0 Calma 3 Sudeste 0 -- -- 81
2019-07-11 06:00:00 14.6 0 Calma 6 Sudeste 0 -- -- 80
2019-07-11 05:00:00 15.3 0 Calma 4 Sudeste 0 -- -- 78
2019-07-11 04:00:00 15.9 0 Calma 4 Sudeste 0 -- -- 75
2019-07-11 03:00:00 16.8 0 Calma 4 Sudeste 0 -- -- 72
2019-07-11 02:00:00 17.8 0 Calma 4 Sudeste 0 -- -- 69
2019-07-11 01:00:00 19.1 0 Calma 4 Sur 0 -- -- 63
2019-07-11 00:00:00 20.1 0 Calma 3 Noroeste 0 -- -- 60
2019-07-10 23:00:00 22.5 2 Este 8 Sudeste 0 -- -- 49
2019-07-10 22:00:00 23.9 0 Calma 6 Sudoeste 0 -- -- 45
2019-07-10 21:00:00 26.9 2 Sudoeste 10 Noroeste 0 -- -- 38
2019-07-10 20:00:00 28.2 4 Oeste 16 Noroeste 0 -- -- 36
2019-07-10 19:00:00 28.9 3 Sudoeste 21 Noroeste 0 -- -- 36
2019-07-10 18:00:00 28.6 4 Sudoeste 19 Nordeste 0 -- -- 37
2019-07-10 17:00:00 28.2 4 Este 22 Noroeste 0 -- -- 38
2019-07-10 16:00:00 26.9 8 Noroeste 20 Noroeste 0 -- -- 41
2019-07-10 15:00:00 26.2 9 Oeste 19 Oeste 0 -- -- 43
2019-07-10 14:00:00 24.9 4 Sur 19 Oeste 0 -- -- 45
2019-07-10 13:00:00 24 5 Oeste 17 Sudoeste 0 -- -- 44
2019-07-10 12:00:00 22.5 5 Noroeste 10 Noroeste 0 -- -- 52
2019-07-10 11:00:00 19.9 5 Oeste 12 Sudoeste 0 -- -- 60
2019-07-10 10:00:00 16.2 4 Oeste 9 Noroeste 0 -- -- 72
2019-07-10 09:00:00 12.4 3 Este 7 Este 0 -- -- 86
2019-07-10 08:00:00 11 3 Sudeste 6 Sudeste 0 -- -- 91
2019-07-10 07:00:00 11.2 0 Calma 4 Sudeste 0 -- -- 92
2019-07-10 06:00:00 11.8 2 Noroeste 8 Sudeste 0 -- -- 92
2019-07-10 05:00:00 12.3 0 Calma 4 Sudeste 0 -- -- 90
2019-07-10 04:00:00 12.8 0 Calma 4 Sudeste 0 -- -- 89
2019-07-10 03:00:00 13.5 0 Calma 7 Nordeste 0 -- -- 86
2019-07-10 02:00:00 14.3 0 Calma 5 Sudeste 0 -- -- 84
2019-07-10 01:00:00 15.5 0 Calma 7 Noroeste 0 -- -- 80
2019-07-10 00:00:00 16.3 0 Calma 9 Noroeste 0 -- -- 78
2019-07-09 23:00:00 17.3 2 Sudeste 12 Noroeste 0 -- -- 74
2019-07-09 22:00:00 18.1 6 Noroeste 24 Oeste 0 -- -- 70
2019-07-09 21:00:00 19.5 10 Oeste 26 Oeste 0 -- -- 64
2019-07-09 20:00:00 20.6 10 Noroeste 31 Noroeste 0 -- -- 63
2019-07-09 19:00:00 20.9 16 Oeste 28 Oeste 0 -- -- 61
2019-07-09 18:00:00 20.8 14 Oeste 41 Oeste 0 -- -- 62
2019-07-09 17:00:00 22.1 18 Oeste 37 Noroeste 0 -- -- 58
2019-07-09 16:00:00 23.3 8 Noroeste 17 Oeste 0 -- -- 46
2019-07-09 15:00:00 23.1 11 Noroeste 20 Noroeste 0 -- -- 47
2019-07-09 14:00:00 20.9 4 Oeste 14 Oeste 0 -- -- 58
2019-07-09 13:00:00 20 3 Norte 17 Sudoeste 0 -- -- 62
2019-07-09 12:00:00 18.5 8 Oeste 16 Oeste 0 -- -- 67
2019-07-09 11:00:00 16.6 3 Oeste 13 Norte 0 -- -- 78
2019-07-09 10:00:00 15.2 2 Oeste 6 Oeste 0 -- -- 85
2019-07-09 09:00:00 13.7 0 Calma 7 Oeste 0 -- -- 92
2019-07-09 08:00:00 12.3 0 Calma 8 Norte 0 -- -- 93
2019-07-09 07:00:00 12.4 0 Calma 9 Oeste 0 -- -- 92
2019-07-09 06:00:00 12.6 3 Oeste 17 Noroeste 0.2 -- -- 92
2019-07-09 05:00:00 12.5 6 Sudeste 12 Este 1 -- -- 94
2019-07-09 04:00:00 12.5 2 Sudeste 17 Sudeste 1.2 -- -- 94
2019-07-09 03:00:00 11.9 9 Sudeste 40 Noroeste 8.6 -- -- 91
2019-07-09 02:00:00 15.1 6 Oeste 19 Sudoeste 0 -- -- 89
2019-07-09 01:00:00 15.5 4 Sudeste 13 Sur 1 -- -- 90
2019-07-09 00:00:00 16.8 5 Este 24 Noroeste 5.6 -- -- 80
2019-07-08 23:00:00 22.3 8 Sudoeste 37 Sudeste 0 -- -- 49
2019-07-08 22:00:00 22.6 17 Sudeste 35 Sudeste 0 -- -- 53
2019-07-08 21:00:00 23.4 9 Sur 41 Sudeste 0 -- -- 54
2019-07-08 20:00:00 24.5 18 Sudeste 46 Sudeste 0 -- -- 49
2019-07-08 19:00:00 26.5 17 Sudeste 50 Sudeste 0 -- -- 45
2019-07-08 18:00:00 26.5 21 Sudeste 48 Sudeste 0 -- -- 44
2019-07-08 17:00:00 23.3 24 Sudeste 53 Sudeste 0 -- -- 43
2019-07-08 16:00:00 23.6 22 Sudeste 48 Sudeste 0 -- -- 51
2019-07-08 15:00:00 26.4 19 Sudeste 41 Sudeste 0 -- -- 46
2019-07-08 14:00:00 27.2 12 Sudeste 44 Sudeste 0 -- -- 43
2019-07-08 13:00:00 28.5 17 Sudeste 49 Sudeste 0 -- -- 39
2019-07-08 12:00:00 28.2 18 Sudeste 44 Sudeste 0 -- -- 39
2019-07-08 11:00:00 26.3 14 Sudeste 37 Sudeste 0 -- -- 44
2019-07-08 10:00:00 22.8 7 Norte 19 Norte 0 -- -- 58
2019-07-08 09:00:00 19.4 0 Calma 5 Noroeste 0 -- -- 69
2019-07-08 08:00:00 19.1 0 Calma 5 Sur 0 -- -- 67
2019-07-08 07:00:00 19.4 0 Calma 6 Este 0 -- -- 64
2019-07-08 06:00:00 20.6 4 Sudeste 15 Sudeste 0 -- -- 59
2019-07-08 05:00:00 21.4 6 Este 24 Sudeste 0 -- -- 56
2019-07-08 04:00:00 22.5 12 Sudeste 51 Este 0 -- -- 51
2019-07-08 03:00:00 22.1 14 Sudeste 51 Sudeste 0 -- -- 51
2019-07-08 02:00:00 23.3 24 Sudeste 58 Sudeste 0 -- -- 51
2019-07-08 01:00:00 21.2 4 Este 14 Noroeste 0 -- -- 59
2019-07-08 00:00:00 20.3 4 Este 18 Sudeste 0 -- -- 65
2019-07-07 23:00:00 18.9 3 Sudeste 10 Sudeste 0 -- -- 91
2019-07-07 22:00:00 19.3 0 Calma 14 Este 0.2 -- -- 91
2019-07-07 21:00:00 19.1 3 Este 14 Sudeste 1.8 -- -- 92
2019-07-07 20:00:00 18.6 6 Sudeste 16 Este 5.8 -- -- 91
2019-07-07 19:00:00 20 4 Sudeste 12 Este 3.2 -- -- 83
2019-07-07 18:00:00 25.2 4 Sudeste 18 Oeste 0.4 -- -- 61
2019-07-07 17:00:00 27.5 5 Sur 22 Noroeste 0 -- -- 39
2019-07-07 16:00:00 27.7 17 Oeste 33 Oeste 0.2 -- -- 36
2019-07-07 15:00:00 31.2 3 Norte 23 Sudoeste 0.6 -- -- 28
2019-07-07 14:00:00 33.3 9 Oeste 24 Oeste 0 -- -- 22
2019-07-07 13:00:00 31 9 Oeste 25 Este 0 -- -- 22
2019-07-07 12:00:00 29.4 6 Noroeste 15 Noroeste 0 -- -- 23
2019-07-07 11:00:00 27.1 4 Noroeste 9 Norte 0 -- -- 26
2019-07-07 10:00:00 23 2 Sudoeste 6 Noroeste 0 -- -- 34
2019-07-07 09:00:00 18.8 2 Este 6 Este 0 -- -- 42
2019-07-07 08:00:00 17.5 3 Norte 7 Oeste 0 -- -- 46
2019-07-07 07:00:00 18.5 2 Norte 7 Noroeste 0 -- -- 42
2019-07-07 06:00:00 20.9 0 Calma 6 Sudeste 0 -- -- 36
2019-07-07 05:00:00 22.6 2 Sudeste 10 Norte 0 -- -- 33
2019-07-07 04:00:00 25.4 2 Noroeste 28 Sudeste 0 -- -- 29
2019-07-07 03:00:00 26.4 6 Sudeste 16 Sudeste 0 -- -- 28
2019-07-07 02:00:00 26.4 5 Sur 16 Sur 0 -- -- 28
2019-07-07 01:00:00 24.2 0 Calma 6 Nordeste 0 -- -- 35
2019-07-07 00:00:00 26.6 0 Calma 4 Sudeste 0 -- -- 31
2019-07-06 23:00:00 29.3 2 Sudeste 19 Sudoeste 0 -- -- 28
2019-07-06 22:00:00 31 8 Oeste 23 Oeste 0 -- -- 26
2019-07-06 21:00:00 31.9 6 Oeste 30 Oeste 0 -- -- 25
2019-07-06 20:00:00 32.5 11 Oeste 35 Oeste 0 -- -- 24
2019-07-06 19:00:00 33.7 13 Oeste 37 Oeste 0 -- -- 21
2019-07-06 18:00:00 34 14 Sudoeste 38 Sudoeste 0 -- -- 21
2019-07-06 17:00:00 34.7 16 Oeste 52 Sudoeste 0 -- -- 21
2019-07-06 16:00:00 35.4 14 Oeste 38 Oeste 0 -- -- 21
2019-07-06 15:00:00 34.7 9 Sur 30 Sur 0 -- -- 22
2019-07-06 14:00:00 33.7 9 Sudoeste 26 Sudeste 0 -- -- 21
2019-07-06 13:00:00 31.8 7 Noroeste 18 Norte 0 -- -- 24
2019-07-06 12:00:00 30.1 5 Norte 16 Noroeste 0 -- -- 26
2019-07-06 11:00:00 28.4 5 Oeste 19 Noroeste 0 -- -- 31
2019-07-06 10:00:00 26.4 6 Sudoeste 19 Noroeste 0 -- -- 32
2019-07-06 09:00:00 23.2 2 Este 6 Oeste 0 -- -- 40
2019-07-06 08:00:00 22 0 Calma 9 Sudeste 0 -- -- 48
2019-07-06 07:00:00 23.2 3 Sudeste 15 Sudeste 0 -- -- 45
2019-07-06 06:00:00 23.9 7 Sur 18 Sur 0 -- -- 47
2019-07-06 05:00:00 24.2 5 Sur 21 Sudeste 0 -- -- 53
2019-07-06 04:00:00 20.7 4 Sur 10 Sur 0 -- -- 54
2019-07-06 03:00:00 20.1 0 Calma 5 Sudeste 0 -- -- 43
2019-07-06 02:00:00 21.2 2 Sudeste 5 Noroeste 0 -- -- 39
2019-07-06 01:00:00 22.6 0 Calma 4 Oeste 0 -- -- 35
2019-07-06 00:00:00 25.4 0 Calma 5 Este 0 -- -- 29
2019-07-05 23:00:00 27.8 0 Calma 8 Noroeste 0 -- -- 26
2019-07-05 22:00:00 29.8 0 Calma 22 Noroeste 0 -- -- 23
2019-07-05 21:00:00 32.9 5 Noroeste 24 Oeste 0 -- -- 19
2019-07-05 20:00:00 34.7 8 Oeste 25 Oeste 0 -- -- 18
2019-07-05 19:00:00 35.4 11 Noroeste 39 Oeste 0 -- -- 17
2019-07-05 18:00:00 35.6 12 Oeste 34 Oeste 0 -- -- 16
2019-07-05 17:00:00 35.7 11 Oeste 35 Sudeste 0 -- -- 19
2019-07-05 16:00:00 34.7 9 Noroeste 24 Oeste 0 -- -- 20
2019-07-05 15:00:00 33.3 4 Sur 18 Noroeste 0 -- -- 23
2019-07-05 14:00:00 32.6 9 Sur 27 Sudeste 0 -- -- 25
2019-07-05 13:00:00 30.1 6 Sudoeste 15 Noroeste 0 -- -- 30
2019-07-05 12:00:00 28.3 5 Noroeste 10 Noroeste 0 -- -- 32
2019-07-05 11:00:00 25.9 3 Sur 8 Noroeste 0 -- -- 34
2019-07-05 10:00:00 23 2 Noroeste 5 Noroeste 0 -- -- 40
2019-07-05 09:00:00 20.5 0 Calma 5 Sudeste 0 -- -- 47
2019-07-05 08:00:00 19.4 0 Calma 8 Sudoeste 0 -- -- 52
2019-07-05 07:00:00 19.1 0 Calma 7 Oeste 0 -- -- 53
2019-07-05 06:00:00 19.5 0 Calma 6 Noroeste 0 -- -- 52
2019-07-05 05:00:00 21.6 3 Oeste 18 Sudoeste 0 -- -- 46
2019-07-05 04:00:00 23.1 10 Sur 27 Oeste 0 -- -- 41
2019-07-05 03:00:00 22.5 8 Sur 19 Sudoeste 0 -- -- 42
2019-07-05 02:00:00 23.1 6 Noroeste 16 Oeste 0 -- -- 33
2019-07-05 01:00:00 23.5 5 Oeste 17 Oeste 0 -- -- 32
2019-07-05 00:00:00 23.7 3 Este 10 Oeste 0 -- -- 28
2019-07-04 23:00:00 25.2 6 Sudeste 29 Sudeste 0 -- -- 27
2019-07-04 22:00:00 25.9 11 Sudeste 27 Sudeste 0 -- -- 30
2019-07-04 21:00:00 27.8 10 Sudeste 26 Sudeste 0 -- -- 31
2019-07-04 20:00:00 30.1 8 Sudeste 29 Sudeste 0 -- -- 28
2019-07-04 19:00:00 31.7 6 Sur 27 Sur 0 -- -- 28
2019-07-04 18:00:00 32.4 12 Sudeste 27 Sur 0 -- -- 27
2019-07-04 17:00:00 32.4 11 Sudeste 36 Sudeste 0 -- -- 27
2019-07-04 16:00:00 32.2 6 Sur 26 Sudeste 0 -- -- 28
2019-07-04 15:00:00 31.4 8 Sur 35 Noroeste 0 -- -- 28
2019-07-04 14:00:00 31 6 Sudoeste 19 Sur 0 -- -- 28
2019-07-04 13:00:00 29.6 9 Oeste 26 Norte 0 -- -- 27
2019-07-04 12:00:00 29 3 Sudeste 23 Sur 0 -- -- 29
2019-07-04 11:00:00 26.5 4 Norte 15 Este 0 -- -- 32
2019-07-04 10:00:00 21.2 0 Calma 4 Nordeste 0 -- -- 49
2019-07-04 09:00:00 17.9 3 Norte 6 Norte 0 -- -- 61
2019-07-04 08:00:00 15.7 0 Calma 5 Norte 0 -- -- 67
2019-07-04 07:00:00 16.2 2 Norte 6 Sudeste 0 -- -- 63
2019-07-04 06:00:00 17 0 Calma 6 Sudeste 0 -- -- 59
2019-07-04 05:00:00 17.4 2 Nordeste 5 Oeste 0 -- -- 57
2019-07-04 04:00:00 19 0 Calma 5 Sur 0 -- -- 49
2019-07-04 03:00:00 20.6 0 Calma 6 Norte 0 -- -- 45
2019-07-04 02:00:00 21.7 2 Norte 7 Nordeste 0 -- -- 44
2019-07-04 01:00:00 22.8 2 Norte 17 Sudeste 0 -- -- 42
2019-07-04 00:00:00 23.3 3 Sudeste 22 Sudeste 0 -- -- 43
2019-07-03 23:00:00 24.7 7 Sudeste 22 Sudeste 0 -- -- 43
2019-07-03 22:00:00 25.7 6 Sudeste 12 Este 0 -- -- 43
2019-07-03 21:00:00 27.4 3 Sudeste 13 Este 0 -- -- 39
2019-07-03 20:00:00 29 6 Sudeste 21 Sur 0 -- -- 36
2019-07-03 19:00:00 31.9 7 Sudeste 27 Sur 0 -- -- 32
2019-07-03 18:00:00 32.9 8 Sudeste 22 Sur 0 -- -- 28
2019-07-03 17:00:00 32.9 5 Sudoeste 25 Sudeste 0 -- -- 25
2019-07-03 16:00:00 32.6 5 Sudeste 23 Norte 0 -- -- 25
2019-07-03 15:00:00 32.1 5 Este 23 Sudeste 0 -- -- 25
2019-07-03 14:00:00 30.8 7 Sudoeste 24 Oeste 0 -- -- 27
2019-07-03 13:00:00 28.2 12 Oeste 24 Noroeste 0 -- -- 33
2019-07-03 12:00:00 26.8 8 Noroeste 18 Noroeste 0 -- -- 40
2019-07-03 11:00:00 24.6 7 Noroeste 17 Norte 0 -- -- 44
2019-07-03 10:00:00 20.5 0 Calma 6 Sudoeste 0 -- -- 52
2019-07-03 09:00:00 16.8 2 Norte 5 Oeste 0 -- -- 71
2019-07-03 08:00:00 15.1 0 Calma 3 Sudeste 0 -- -- 78
2019-07-03 07:00:00 15.2 0 Calma 5 Noroeste 0 -- -- 77
2019-07-03 06:00:00 15.8 0 Calma 4 Sudeste 0 -- -- 80
2019-07-03 05:00:00 16.6 0 Calma 5 Sudeste 0 -- -- 77
2019-07-03 04:00:00 17.3 0 Calma 4 Sudeste 0 -- -- 75
2019-07-03 03:00:00 17.4 0 Calma 5 Este 0 -- -- 76
2019-07-03 02:00:00 17.6 0 Calma 4 Sudeste 0 -- -- 75
2019-07-03 01:00:00 18.3 0 Calma 6 Este 0 -- -- 72
2019-07-03 00:00:00 18.5 2 Sudeste 7 Oeste 0 -- -- 74
2019-07-02 23:00:00 20.1 2 Oeste 10 Norte 0 -- -- 67
2019-07-02 22:00:00 21.8 3 Norte 10 Norte 0 -- -- 63
2019-07-02 21:00:00 23.8 4 Sudeste 16 Sudeste 0 -- -- 48
2019-07-02 20:00:00 21.6 4 Sudoeste 54 Noroeste 0 -- -- 56
2019-07-02 19:00:00 27.7 5 Sur 28 Oeste 0 -- -- 41
2019-07-02 18:00:00 29.4 6 Sudeste 14 Sur 0 -- -- 35
2019-07-02 17:00:00 29.9 4 Oeste 12 Noroeste 0 -- -- 34
2019-07-02 16:00:00 28.8 3 Oeste 14 Norte 0 -- -- 37
2019-07-02 15:00:00 28.3 3 Sudoeste 18 Noroeste 0 -- -- 39
2019-07-02 14:00:00 28.6 5 Norte 24 Noroeste 0 -- -- 40
2019-07-02 13:00:00 26.4 8 Oeste 20 Noroeste 0 -- -- 44
2019-07-02 12:00:00 24.2 7 Oeste 18 Oeste 0 -- -- 48
2019-07-02 11:00:00 21.4 5 Oeste 16 Noroeste 0 -- -- 56
2019-07-02 10:00:00 18.9 3 Este 13 Norte 0 -- -- 65
2019-07-02 09:00:00 16.8 2 Sudeste 8 Este 0 -- -- 74
2019-07-02 08:00:00 14.3 0 Calma 4 Este 0 -- -- 80
2019-07-02 07:00:00 14.2 0 Calma 4 Noroeste 0 -- -- 78
2019-07-02 06:00:00 15.2 0 Calma 4 Norte 0 -- -- 73
2019-07-02 05:00:00 15.9 0 Calma 4 Sudeste 0 -- -- 72
2019-07-02 04:00:00 16.5 0 Calma 4 Norte 0 -- -- 71
2019-07-02 03:00:00 18 0 Calma 4 Norte 0 -- -- 67
2019-07-02 02:00:00 19.2 3 Este 16 Este 0 -- -- 62
2019-07-02 01:00:00 19.9 8 Este 18 Este 0 -- -- 62
2019-07-02 00:00:00 21.1 3 Sudeste 8 Sudeste 0 -- -- 57
2019-07-01 23:00:00 22.7 2 Sur 16 Noroeste 0 -- -- 51
2019-07-01 22:00:00 26.3 4 Sur 16 Oeste 0 -- -- 40
2019-07-01 21:00:00 29.1 4 Este 25 Sudeste 0 -- -- 28
2019-07-01 20:00:00 30.4 9 Sudeste 32 Este 0 -- -- 25
2019-07-01 19:00:00 32.9 14 Sudeste 32 Sudeste 0 -- -- 19
2019-07-01 18:00:00 34.5 12 Sur 30 Sur 0 -- -- 20
2019-07-01 17:00:00 34.8 10 Sur 27 Sudeste 0 -- -- 22
2019-07-01 16:00:00 33.3 5 Sudoeste 21 Noroeste 0 -- -- 28
2019-07-01 15:00:00 32.6 8 Oeste 27 Noroeste 0 -- -- 31
2019-07-01 14:00:00 31.5 5 Sudoeste 22 Norte 0 -- -- 33
2019-07-01 13:00:00 -- -- -- -- -- -- -- -- --
2019-07-01 12:00:00 28.9 4 Sudoeste 21 Noroeste 0 -- -- 35
2019-07-01 11:00:00 27.3 6 Oeste 18 Noroeste 0 -- -- 38
2019-07-01 10:00:00 26 5 Nordeste 12 Norte 0 -- -- 36
2019-07-01 09:00:00 23.4 2 Nordeste 10 Nordeste 0 -- -- 40
2019-07-01 08:00:00 22.4 0 Calma 8 Sudoeste 0 -- -- 36
2019-07-01 07:00:00 23.5 4 Sudeste 16 Sudoeste 0 -- -- 34
2019-07-01 06:00:00 23.9 3 Noroeste 22 Oeste 0 -- -- 31
2019-07-01 05:00:00 25.2 3 Sur 23 Oeste 0 -- -- 28
2019-07-01 04:00:00 24.9 4 Sur 13 Oeste 0 -- -- 28
2019-07-01 03:00:00 25.8 3 Sur 22 Sudeste 0 -- -- 28
2019-07-01 02:00:00 26.1 4 Sur 13 Sudoeste 0 -- -- 26
2019-07-01 01:00:00 26.8 5 Sur 21 Sudoeste 0 -- -- 25
2019-07-01 00:00:00 28.1 5 Sur 21 Sur 0 -- -- 22
2019-06-30 23:00:00 29.2 6 Sur 32 Este 0 -- -- 20
2019-06-30 22:00:00 30.3 12 Sudeste 37 Sudeste 0 -- -- 22
2019-06-30 21:00:00 32.3 9 Sudeste 29 Sudeste 0 -- -- 20
2019-06-30 20:00:00 34.8 9 Sur 31 Sudeste 0 -- -- 20
2019-06-30 19:00:00 36.7 9 Sur 28 Sudoeste 0 -- -- 17
2019-06-30 18:00:00 37.8 9 Oeste 22 Sudoeste 0 -- -- 15
2019-06-30 17:00:00 37.8 5 Sur 22 Oeste 0 -- -- 15
2019-06-30 16:00:00 37.5 5 Oeste 25 Sudoeste 0 -- -- 15
2019-06-30 15:00:00 36.6 8 Sur 23 Sudeste 0 -- -- 15
2019-06-30 14:00:00 36.1 8 Sur 20 Sur 0 -- -- 15
2019-06-30 13:00:00 35 6 Sudoeste 24 Oeste 0 -- -- 15
2019-06-30 12:00:00 33.8 8 Noroeste 18 Noroeste 0 -- -- 15
2019-06-30 11:00:00 31.5 3 Nordeste 12 Sudoeste 0 -- -- 17
2019-06-30 10:00:00 27.1 3 Noroeste 8 Norte 0 -- -- 22
2019-06-30 09:00:00 23.9 2 Este 5 Sudeste 0 -- -- 26
2019-06-30 08:00:00 21 2 Este 5 Noroeste 0 -- -- 29
2019-06-30 07:00:00 20.2 3 Nordeste 8 Oeste 0 -- -- 28
2019-06-30 06:00:00 21.4 2 Sudeste 5 Sudeste 0 -- -- 24
2019-06-30 05:00:00 22 0 Calma 8 Oeste 0 -- -- 22
2019-06-30 04:00:00 24.1 2 Este 7 Este 0 -- -- 19
2019-06-30 03:00:00 25.3 3 Sur 15 Norte 0 -- -- 18
2019-06-30 02:00:00 26.2 4 Sur 16 Sudoeste 0 -- -- 18
2019-06-30 01:00:00 27.5 5 Sudeste 16 Sudeste 0 -- -- 16
2019-06-30 00:00:00 29.4 8 Sudeste 30 Sudeste 0 -- -- 16
2019-06-29 23:00:00 30.4 9 Sudeste 31 Sudeste 0 -- -- 16
2019-06-29 22:00:00 31.5 13 Sudeste 38 Sudeste 0 -- -- 16
2019-06-29 21:00:00 33.9 11 Sudeste 28 Sur 0 -- -- 15
2019-06-29 20:00:00 37.7 6 Sur 18 Sudeste 0 -- -- 14
2019-06-29 19:00:00 38.2 4 Oeste 17 Este 0 -- -- 11
2019-06-29 18:00:00 38.2 6 Sur 20 Sudeste 0 -- -- 12
2019-06-29 17:00:00 38.3 8 Oeste 22 Oeste 0 -- -- 12
2019-06-29 16:00:00 37.9 7 Sudeste 27 Sudeste 0 -- -- 11
2019-06-29 15:00:00 37.7 9 Sudeste 31 Sur 0 -- -- 12
2019-06-29 14:00:00 36.9 8 Sudeste 24 Sudeste 0 -- -- 13
2019-06-29 13:00:00 36.1 5 Sudeste 27 Este 0 -- -- 13
2019-06-29 12:00:00 34.5 4 Sur 14 Noroeste 0 -- -- 15
2019-06-29 11:00:00 31 5 Oeste 9 Noroeste 0 -- -- 18
2019-06-29 10:00:00 23.3 0 Calma 4 Oeste 0 -- -- 24
2019-06-29 09:00:00 17.9 0 Calma 4 Norte 0 -- -- 32
2019-06-29 08:00:00 16.7 0 Calma 5 Noroeste 0 -- -- 33
2019-06-29 07:00:00 16.6 2 Norte 5 Oeste 0 -- -- 32
2019-06-29 06:00:00 17.2 0 Calma 8 Sudoeste 0 -- -- 33
2019-06-29 05:00:00 18.7 2 Sudeste 7 Sudeste 0 -- -- 32
2019-06-29 04:00:00 18.7 0 Calma 5 Sudeste 0 -- -- 33
2019-06-29 03:00:00 19.8 0 Calma 5 Noroeste 0 -- -- 35
2019-06-29 02:00:00 21.3 3 Oeste 7 Norte 0 -- -- 33
2019-06-29 01:00:00 21.3 0 Calma 8 Nordeste 0 -- -- 33
2019-06-29 00:00:00 23.5 3 Noroeste 9 Oeste 0 -- -- 30
2019-06-28 23:00:00 28 3 Sudeste 8 Sudeste 0 -- -- 25
2019-06-28 22:00:00 30.2 4 Este 12 Sudeste 0 -- -- 20
2019-06-28 21:00:00 34.1 4 Sudeste 15 Sudeste 0 -- -- 17
2019-06-28 20:00:00 35.9 7 Sudeste 20 Sudoeste 0 -- -- 16
2019-06-28 19:00:00 36.9 9 Sudeste 27 Sudeste 0 -- -- 15
2019-06-28 18:00:00 37.6 11 Sudeste 32 Sudeste 0 -- -- 15
2019-06-28 17:00:00 37.4 9 Sudeste 30 Sudeste 0 -- -- 15
2019-06-28 16:00:00 37.4 11 Sudeste 32 Sudeste 0 -- -- 15
2019-06-28 15:00:00 37.2 5 Sudeste 30 Sudeste 0 -- -- 16
2019-06-28 14:00:00 36.6 5 Oeste 27 Sudeste 0 -- -- 15
2019-06-28 13:00:00 35.1 4 Sur 12 Norte 0 -- -- 19
2019-06-28 12:00:00 32.9 5 Noroeste 9 Oeste 0 -- -- 20
2019-06-28 11:00:00 29.9 4 Oeste 9 Oeste 0 -- -- 23
2019-06-28 10:00:00 25.6 4 Oeste 11 Sudoeste 0 -- -- 31
2019-06-28 09:00:00 21.3 3 Norte 5 Norte 0 -- -- 38
2019-06-28 08:00:00 19.2 0 Calma 10 Este 0 -- -- 38
2019-06-28 07:00:00 17.4 0 Calma 7 Sudeste 0 -- -- 41
2019-06-28 06:00:00 18.6 2 Sudeste 7 Sudeste 0 -- -- 37
2019-06-28 05:00:00 20.3 3 Sudeste 6 Sudeste 0 -- -- 35
2019-06-28 04:00:00 22 2 Sudeste 6 Noroeste 0 -- -- 31
2019-06-28 03:00:00 23.5 2 Sudeste 7 Sudeste 0 -- -- 28
2019-06-28 02:00:00 25.2 2 Norte 7 Sudeste 0 -- -- 26
2019-06-28 01:00:00 27.9 3 Norte 12 Este 0 -- -- 22
2019-06-28 00:00:00 29.6 6 Este 22 Sudeste 0 -- -- 19
2019-06-27 23:00:00 30.5 9 Sudeste 33 Sudeste 0 -- -- 19
2019-06-27 22:00:00 30.4 10 Sudeste 21 Sur 0 -- -- 19
2019-06-27 21:00:00 32.8 6 Sudeste 26 Sur 0 -- -- 17
2019-06-27 20:00:00 35.1 12 Sudeste 29 Sudeste 0 -- -- 16
2019-06-27 19:00:00 35.9 9 Sur 33 Sudeste 0 -- -- 14
2019-06-27 18:00:00 36.8 6 Sudeste 42 Sudeste 0 -- -- 14
2019-06-27 17:00:00 36.9 18 Sudeste 51 Sudeste 0 -- -- 14
2019-06-27 16:00:00 37.3 18 Sudeste 63 Sudeste 0 -- -- 15
2019-06-27 15:00:00 37.7 8 Sudeste 24 Sudeste 0 -- -- 16
2019-06-27 14:00:00 36.6 6 Sudeste 22 Sudoeste 0 -- -- 17
2019-06-27 13:00:00 36.7 8 Sudeste 29 Sur 0 -- -- 17
2019-06-27 12:00:00 33.7 5 Noroeste 18 Norte 0 -- -- 22
2019-06-27 11:00:00 29.1 5 Sudoeste 14 Sudeste 0 -- -- 30
2019-06-27 10:00:00 26.3 4 Sudeste 15 Sudeste 0 -- -- 32
2019-06-27 09:00:00 22.8 3 Norte 13 Oeste 0 -- -- 40
2019-06-27 08:00:00 22.4 6 Norte 14 Norte 0 -- -- 36
2019-06-27 07:00:00 27.3 5 Nordeste 21 Sudeste 0 -- -- 23
2019-06-27 06:00:00 27.3 7 Sudeste 24 Sudeste 0 -- -- 23
2019-06-27 05:00:00 27.4 9 Sudeste 31 Sudeste 0 -- -- 25
2019-06-27 04:00:00 26.8 8 Sudeste 26 Sudeste 0 -- -- 26
2019-06-27 03:00:00 27.1 6 Este 27 Sudeste 0 -- -- 25
2019-06-27 02:00:00 27 8 Sudeste 33 Sudeste 0 -- -- 27
2019-06-27 01:00:00 27.4 6 Sudeste 19 Sudeste 0 -- -- 26
2019-06-27 00:00:00 27.8 4 Sudeste 18 Sudeste 0 -- -- 25
2019-06-26 23:00:00 28 6 Sudeste 22 Sudeste 0 -- -- 26
2019-06-26 22:00:00 28.7 8 Sudeste 20 Sudeste 0 -- -- 35
2019-06-26 21:00:00 32.1 7 Sudeste 20 Sudeste 0 -- -- 31
2019-06-26 20:00:00 34.8 9 Sur 27 Sudeste 0 -- -- 25
2019-06-26 19:00:00 36.3 6 Sur 31 Sudeste 0 -- -- 21
2019-06-26 18:00:00 37.4 9 Sur 32 Sudeste 0 -- -- 20
2019-06-26 17:00:00 37 14 Sudeste 32 Sudeste 0 -- -- 21
2019-06-26 16:00:00 37.3 13 Sudeste 38 Sudeste 0 -- -- 20
2019-06-26 15:00:00 35.7 9 Norte 24 Nordeste 0 -- -- 26
2019-06-26 14:00:00 33.3 11 Noroeste 22 Norte 0 -- -- 32
2019-06-26 13:00:00 30.6 12 Oeste 26 Oeste 0 -- -- 37
2019-06-26 12:00:00 28.7 6 Noroeste 18 Oeste 0 -- -- 41
2019-06-26 11:00:00 25.9 4 Sur 21 Este 0 -- -- 48
2019-06-26 10:00:00 23.8 9 Nordeste 22 Este 0 -- -- 51
2019-06-26 09:00:00 20.8 2 Este 11 Sudeste 0 -- -- 50
2019-06-26 08:00:00 20.4 3 Este 11 Nordeste 0 -- -- 46
2019-06-26 07:00:00 23.2 5 Norte 16 Noroeste 0 -- -- 37
2019-06-26 06:00:00 26.5 4 Este 16 Sudeste 0 -- -- 22
2019-06-26 05:00:00 27.3 10 Sudeste 43 Sudeste 0 -- -- 23
2019-06-26 04:00:00 27.5 15 Sudeste 44 Sudeste 0 -- -- 24
2019-06-26 03:00:00 26 14 Sudeste 35 Sudeste 0 -- -- 30
2019-06-26 02:00:00 25.1 10 Sudeste 30 Sudeste 0 -- -- 34
2019-06-26 01:00:00 25.3 4 Sudeste 23 Sur 0 -- -- 36
2019-06-26 00:00:00 26 6 Sudeste 20 Sudeste 0 -- -- 41
2019-06-25 23:00:00 27 7 Sudeste 16 Sudeste 0 -- -- 44
2019-06-25 22:00:00 29.5 5 Este 14 Sudeste 0 -- -- 36
2019-06-25 21:00:00 32.2 5 Este 12 Este 0 -- -- 33
2019-06-25 20:00:00 33.9 3 Sudoeste 16 Oeste 0 -- -- 36
2019-06-25 19:00:00 34.3 5 Sur 35 Nordeste 0 -- -- 35
2019-06-25 18:00:00 33.6 6 Sudoeste 22 Oeste 0 -- -- 37
2019-06-25 17:00:00 34.1 5 Oeste 17 Oeste 0 -- -- 34
2019-06-25 16:00:00 32.4 9 Norte 25 Noroeste 0 -- -- 35
2019-06-25 15:00:00 32 8 Noroeste 23 Noroeste 0 -- -- 35
2019-06-25 14:00:00 30.2 7 Noroeste 21 Noroeste 0 -- -- 38
2019-06-25 13:00:00 29 7 Noroeste 23 Noroeste 0 -- -- 39
2019-06-25 12:00:00 27 7 Noroeste 18 Noroeste 0 -- -- 41
2019-06-25 11:00:00 25.5 5 Norte 17 Norte 0 -- -- 45
2019-06-25 10:00:00 21.5 3 Noroeste 6 Noroeste 0 -- -- 58
2019-06-25 09:00:00 17.2 0 Calma 3 Este 0 -- -- 72
2019-06-25 08:00:00 16.2 0 Calma 3 Este 0 -- -- 73
2019-06-25 07:00:00 16.5 0 Calma 4 Sudeste 0 -- -- 71
2019-06-25 06:00:00 17.3 0 Calma 2 Noroeste 0 -- -- 67
2019-06-25 05:00:00 18.6 0 Calma 4 Sudeste 0 -- -- 63
2019-06-25 04:00:00 19.1 0 Calma 3 Norte 0 -- -- 61
2019-06-25 03:00:00 20.7 0 Calma 4 Sudeste 0 -- -- 56
2019-06-25 02:00:00 21.9 0 Calma 5 Oeste 0 -- -- 53
2019-06-25 01:00:00 22.9 2 Este 9 Norte 0 -- -- 50
2019-06-25 00:00:00 23 3 Nordeste 8 Sudeste 0 -- -- 48
2019-06-24 23:00:00 23.9 0 Calma 8 Norte 0 -- -- 42
2019-06-24 22:00:00 26.3 2 Este 8 Sudeste 0 -- -- 39
2019-06-24 21:00:00 29.2 3 Oeste 12 Noroeste 0 -- -- 35
2019-06-24 20:00:00 30.5 5 Sudeste 13 Este 0 -- -- 32
2019-06-24 19:00:00 31.1 4 Sudoeste 18 Sudeste 0 -- -- 31
2019-06-24 18:00:00 32 7 Sudeste 21 Sudeste 0 -- -- 31
2019-06-24 17:00:00 31.1 4 Sur 19 Sudeste 0 -- -- 31
2019-06-24 16:00:00 31 9 Noroeste 25 Norte 0 -- -- 28
2019-06-24 15:00:00 30.1 6 Sudeste 24 Norte 0 -- -- 29
2019-06-24 14:00:00 29.8 8 Noroeste 23 Noroeste 0 -- -- 30
2019-06-24 13:00:00 27.7 9 Noroeste 18 Oeste 0 -- -- 30
2019-06-24 12:00:00 26 6 Noroeste 16 Norte 0 -- -- 31
2019-06-24 11:00:00 24.1 6 Noroeste 14 Noroeste 0 -- -- 33
2019-06-24 10:00:00 21.2 0 Calma 9 Noroeste 0 -- -- 39
2019-06-24 09:00:00 18.6 2 Nordeste 6 Noroeste 0 -- -- 47
2019-06-24 08:00:00 17 0 Calma 4 Sudeste 0 -- -- 48
2019-06-24 07:00:00 17.7 0 Calma 6 Sudeste 0 -- -- 43
2019-06-24 06:00:00 19.5 0 Calma 20 Oeste 0 -- -- 36
2019-06-24 05:00:00 21.1 6 Sudoeste 19 Sur 0 -- -- 32
2019-06-24 04:00:00 21.4 9 Sudoeste 24 Sudoeste 0 -- -- 30
2019-06-24 03:00:00 21.9 7 Sur 30 Sudeste 0 -- -- 30
2019-06-24 02:00:00 22.6 13 Sudeste 46 Sudeste 0 -- -- 35
2019-06-24 01:00:00 24 11 Sudeste 30 Sudeste 0 -- -- 35
2019-06-24 00:00:00 25 7 Sudeste 24 Este 0 -- -- 33
2019-06-23 23:00:00 25.4 8 Sudeste 26 Este 0 -- -- 33
2019-06-23 22:00:00 26.4 13 Sudeste 32 Sudeste 0 -- -- 32
2019-06-23 21:00:00 28.2 8 Sur 30 Sudeste 0 -- -- 34
2019-06-23 20:00:00 32 6 Sudeste 22 Sudeste 0 -- -- 29
2019-06-23 19:00:00 32.3 6 Sur 24 Sudeste 0 -- -- 28
2019-06-23 18:00:00 33.5 6 Sudoeste 31 Sudeste 0 -- -- 25
2019-06-23 17:00:00 33.5 8 Oeste 25 Sur 0 -- -- 25
2019-06-23 16:00:00 32.5 8 Sudeste 24 Oeste 0 -- -- 26
2019-06-23 15:00:00 32 10 Sudeste 30 Este 0 -- -- 26
2019-06-23 14:00:00 31 9 Sur 29 Sur 0 -- -- 27
2019-06-23 13:00:00 29.7 12 Sudeste 27 Este 0 -- -- 28
2019-06-23 12:00:00 27.5 10 Sudoeste 31 Sudoeste 0 -- -- 30
2019-06-23 11:00:00 26.1 5 Norte 28 Sudoeste 0 -- -- 32
2019-06-23 10:00:00 24.1 5 Sudeste 17 Noroeste 0 -- -- 33
2019-06-23 09:00:00 21.9 4 Nordeste 14 Oeste 0 -- -- 39
2019-06-23 08:00:00 20.8 4 Sudoeste 15 Sur 0 -- -- 45
2019-06-23 07:00:00 19.9 5 Sur 15 Oeste 0 -- -- 51
2019-06-23 06:00:00 18.1 0 Calma 4 Este 0 -- -- 66
2019-06-23 05:00:00 18.9 0 Calma 11 Sudoeste 0 -- -- 66
2019-06-23 04:00:00 19.5 0 Calma 9 Sudoeste 0 -- -- 63
2019-06-23 03:00:00 20 2 Sudeste 10 Sudoeste 0 -- -- 62
2019-06-23 02:00:00 20.3 4 Sur 12 Oeste 0 -- -- 60
2019-06-23 01:00:00 20.9 3 Sur 12 Oeste 0 -- -- 60
2019-06-23 00:00:00 21.9 4 Sudeste 16 Sudeste 0 -- -- 58
2019-06-22 23:00:00 22.8 3 Sudeste 13 Sur 0 -- -- 56
2019-06-22 22:00:00 24.1 6 Sudeste 14 Sudeste 0 -- -- 53
2019-06-22 21:00:00 25.3 4 Este 12 Este 0 -- -- 51
2019-06-22 20:00:00 26.5 0 Calma 15 Sur 0 -- -- 48
2019-06-22 19:00:00 27.7 8 Sudeste 30 Este 0 -- -- 39
2019-06-22 18:00:00 29.3 8 Sur 24 Este 0 -- -- 31
2019-06-22 17:00:00 29 8 Oeste 26 Noroeste 0 -- -- 31
2019-06-22 16:00:00 28.2 7 Sudoeste 22 Noroeste 0 -- -- 32
2019-06-22 15:00:00 27.9 6 Sudeste 26 Oeste 0 -- -- 32
2019-06-22 14:00:00 26.8 5 Noroeste 18 Oeste 0 -- -- 34
2019-06-22 13:00:00 24.1 3 Sudoeste 14 Norte 0 -- -- 48
2019-06-22 12:00:00 22.1 3 Nordeste 10 Noroeste 0 -- -- 53
2019-06-22 11:00:00 19.3 3 Norte 10 Este 0 -- -- 59
2019-06-22 10:00:00 15 0 Calma 4 Sur 0 -- -- 75
2019-06-22 09:00:00 10.9 3 Este 5 Este 0 -- -- 86
2019-06-22 08:00:00 8.9 0 Calma 4 Noroeste 0 -- -- 88
2019-06-22 07:00:00 8.8 0 Calma 4 Sudeste 0 -- -- 89
2019-06-22 06:00:00 9.1 2 Sudeste 4 Sudeste 0 -- -- 87
2019-06-22 05:00:00 9.7 0 Calma 4 Sudeste 0 -- -- 85
2019-06-22 04:00:00 10.6 0 Calma 4 Oeste 0 -- -- 83
2019-06-22 03:00:00 11.7 0 Calma 3 Oeste 0 -- -- 80
2019-06-22 02:00:00 13 0 Calma 6 Este 0 -- -- 75
2019-06-22 01:00:00 13.6 3 Sudeste 7 Sudeste 0 -- -- 73
2019-06-22 00:00:00 14.8 0 Calma 5 Sudeste 0 -- -- 68
2019-06-21 23:00:00 16 0 Calma 11 Noroeste 0 -- -- 64
2019-06-21 22:00:00 17.8 5 Noroeste 16 Oeste 0 -- -- 59
2019-06-21 21:00:00 19.8 8 Oeste 20 Oeste 0 -- -- 55
2019-06-21 20:00:00 20.8 10 Noroeste 24 Oeste 0 -- -- 53
2019-06-21 19:00:00 20.5 9 Noroeste 18 Oeste 0 -- -- 56
2019-06-21 18:00:00 21.2 4 Sudoeste 20 Noroeste 0 -- -- 55
2019-06-21 17:00:00 21 9 Oeste 28 Noroeste 0 -- -- 54
2019-06-21 16:00:00 19.9 11 Oeste 30 Noroeste 0 -- -- 59
2019-06-21 15:00:00 19.3 17 Oeste 30 Oeste 0 -- -- 59
2019-06-21 14:00:00 20.4 9 Noroeste 20 Oeste 0 -- -- 61
2019-06-21 13:00:00 18.4 6 Norte 17 Noroeste 0 -- -- 69
2019-06-21 12:00:00 16.2 2 Oeste 9 Norte 0 -- -- 77
2019-06-21 11:00:00 15.3 0 Calma 6 Oeste 0 -- -- 79
2019-06-21 10:00:00 14.7 3 Oeste 6 Noroeste 0 -- -- 80
2019-06-21 09:00:00 14.4 3 Este 8 Sudeste 0 -- -- 83
2019-06-21 08:00:00 13.9 4 Sudeste 7 Sudeste 0 -- -- 85
2019-06-21 07:00:00 14 0 Calma 8 Sur 0 -- -- 83
2019-06-21 06:00:00 14.5 0 Calma 8 Sudeste 0 -- -- 80
2019-06-21 05:00:00 14.8 0 Calma 7 Sudoeste 0 -- -- 79
2019-06-21 04:00:00 15.2 0 Calma 5 Sudoeste 0.2 -- -- 80
2019-06-21 03:00:00 15.3 0 Calma 5 Sur 0 -- -- 81
2019-06-21 02:00:00 15.5 0 Calma 10 Oeste 0 -- -- 80
2019-06-21 01:00:00 16.1 2 Sur 9 Oeste 0 -- -- 78
2019-06-21 00:00:00 16.6 3 Sur 8 Noroeste 0 -- -- 86
2019-06-20 23:00:00 16.8 0 Calma 6 Este 0 -- -- 86
2019-06-20 22:00:00 17.5 4 Sudeste 8 Este 0 -- -- 83
2019-06-20 21:00:00 19.7 0 Calma 10 Sudeste 0 -- -- 78
2019-06-20 20:00:00 20.4 5 Sudeste 10 Sudeste 0 -- -- 78
2019-06-20 19:00:00 20 0 Calma 9 Noroeste 0.8 -- -- 79
2019-06-20 18:00:00 18.8 5 Sudeste 15 Oeste 3.4 -- -- 84
2019-06-20 17:00:00 23.3 4 Sudoeste 18 Sudeste 0 -- -- 52
2019-06-20 16:00:00 25.3 6 Sudeste 23 Sur 0 -- -- 45
2019-06-20 15:00:00 25.6 6 Sur 27 Norte 0 -- -- 44
2019-06-20 14:00:00 24.7 5 Oeste 19 Noroeste 0 -- -- 47
2019-06-20 13:00:00 23.6 9 Noroeste 26 Noroeste 0 -- -- 50
2019-06-20 12:00:00 21.9 7 Noroeste 18 Noroeste 0 -- -- 54
2019-06-20 11:00:00 20.5 6 Norte 11 Noroeste 0 -- -- 59
2019-06-20 10:00:00 18.3 4 Norte 13 Nordeste 0 -- -- 66
2019-06-20 09:00:00 14.8 0 Calma 4 Oeste 0 -- -- 77
2019-06-20 08:00:00 12.5 0 Calma 3 Noroeste 0 -- -- 75
2019-06-20 07:00:00 13.3 0 Calma 4 Norte 0 -- -- 70
2019-06-20 06:00:00 14.3 0 Calma 5 Sudeste 0 -- -- 66
2019-06-20 05:00:00 15 0 Calma 4 Sudeste 0 -- -- 63
2019-06-20 04:00:00 16.2 0 Calma 3 Sudoeste 0 -- -- 58
2019-06-20 03:00:00 17.8 0 Calma 5 Este 0 -- -- 52
2019-06-20 02:00:00 19.3 2 Sudeste 8 Norte 0 -- -- 48
2019-06-20 01:00:00 20.7 2 Norte 8 Noroeste 0 -- -- 46
2019-06-20 00:00:00 21.5 2 Norte 8 Noroeste 0 -- -- 48
2019-06-19 23:00:00 22.2 0 Calma 5 Norte 0 -- -- 46
2019-06-19 22:00:00 23.2 2 Nordeste 10 Sudoeste 0 -- -- 44
2019-06-19 21:00:00 25.3 2 Oeste 13 Sudeste 0 -- -- 38
2019-06-19 20:00:00 26.5 6 Noroeste 19 Nordeste 0 -- -- 35
2019-06-19 19:00:00 26.7 3 Norte 17 Oeste 0 -- -- 35
2019-06-19 18:00:00 29.1 7 Oeste 19 Sudoeste 0 -- -- 27
2019-06-19 17:00:00 29.7 8 Noroeste 21 Noroeste 0 -- -- 27
2019-06-19 16:00:00 29.1 6 Sudoeste 22 Oeste 0 -- -- 28
2019-06-19 15:00:00 28 11 Noroeste -- -- -- -- -- 30
2019-06-19 14:00:00 26.8 8 Sudoeste 33 Oeste 0 -- -- 31
2019-06-19 13:00:00 25.7 6 Noroeste 26 Norte 0 -- -- 36
2019-06-19 12:00:00 24.3 7 Oeste 20 Oeste 0 -- -- 39
2019-06-19 11:00:00 22.9 6 Oeste 23 Noroeste 0 -- -- 45
2019-06-19 10:00:00 20.8 8 Noroeste 19 Oeste 0 -- -- 49
2019-06-19 09:00:00 15.9 2 Sudeste 8 Nordeste 0 -- -- 56
2019-06-19 08:00:00 12.9 2 Nordeste 7 Noroeste 0 -- -- 57
2019-06-19 07:00:00 12 3 Este -- -- -- -- -- 57
2019-06-19 06:00:00 -- -- -- -- -- -- -- -- --
2019-06-19 05:00:00 -- -- -- -- -- -- -- -- --
2019-06-19 04:00:00 -- -- -- -- -- -- -- -- --
2019-06-19 03:00:00 -- -- -- -- -- -- -- -- --
2019-06-19 02:00:00 -- -- -- -- -- -- -- -- --
2019-06-19 01:00:00 -- -- -- -- -- -- -- -- --
2019-06-19 00:00:00 -- -- -- -- -- -- -- -- --
2019-06-18 23:00:00 -- -- -- -- -- -- -- -- --
2019-06-18 22:00:00 -- -- -- -- -- -- -- -- --
2019-06-18 21:00:00 -- -- -- -- -- -- -- -- --
2019-06-18 20:00:00 -- -- -- -- -- -- -- -- --
2019-06-18 19:00:00 30.5 10 Oeste 24 Sur 0 -- -- 21
2019-06-18 18:00:00 31.2 10 Oeste 28 Noroeste 0 -- -- 22
2019-06-18 17:00:00 31.2 10 Oeste 30 Oeste 0 -- -- 19
2019-06-18 16:00:00 31.3 12 Oeste 32 Oeste 0 -- -- 21
2019-06-18 15:00:00 30.9 12 Oeste 35 Oeste 0 -- -- 22
2019-06-18 14:00:00 29.5 7 Oeste 23 Oeste 0 -- -- 23
2019-06-18 13:00:00 28.9 9 Oeste 24 Noroeste 0 -- -- 21
2019-06-18 12:00:00 27.2 7 Oeste 24 Noroeste 0 -- -- 22
2019-06-18 11:00:00 26 6 Noroeste 15 Noroeste 0 -- -- 27
2019-06-18 10:00:00 23.9 6 Sur 19 Sudoeste 0 -- -- 31
2019-06-18 09:00:00 22.2 4 Este 12 Nordeste 0 -- -- 33
2019-06-18 08:00:00 21.3 3 Sur 15 Sudoeste 0 -- -- 35
2019-06-18 07:00:00 21.4 5 Sur 16 Oeste 0 -- -- 34
2019-06-18 06:00:00 21.2 3 Sur 15 Noroeste 0 -- -- 35
2019-06-18 05:00:00 21.8 5 Sudoeste 23 Noroeste 0 -- -- 36
2019-06-18 04:00:00 21.7 6 Sudoeste 17 Oeste 0 -- -- 37
2019-06-18 03:00:00 22.1 3 Sur 22 Sudeste 0 -- -- 37
2019-06-18 02:00:00 22.2 5 Sur 21 Oeste 0 -- -- 37
2019-06-18 01:00:00 22.7 8 Sur 31 Sudeste 0 -- -- 37
2019-06-18 00:00:00 23.2 12 Sur 36 Sudeste 0 -- -- 38
2019-06-17 23:00:00 23.1 12 Sudeste 46 Sur 0 -- -- 41
2019-06-17 22:00:00 24.4 12 Sudeste 32 Sudeste 0 -- -- 39
2019-06-17 21:00:00 25.9 7 Sudeste 19 Sudeste 0 -- -- 37
2019-06-17 20:00:00 28.2 6 Sudeste 22 Sur 0 -- -- 34
2019-06-17 19:00:00 29 8 Sudeste 24 Sudeste 0 -- -- 33
2019-06-17 18:00:00 30.5 8 Noroeste 20 Oeste 0 -- -- 23
2019-06-17 17:00:00 30.9 9 Noroeste 20 Oeste 0 -- -- 19
2019-06-17 16:00:00 30.3 8 Noroeste 28 Norte 0 -- -- 20
2019-06-17 15:00:00 29.2 8 Noroeste 22 Noroeste 0 -- -- 22
2019-06-17 14:00:00 28 7 Sudoeste 18 Sudoeste 0 -- -- 24
2019-06-17 13:00:00 26.8 5 Oeste 14 Noroeste 0 -- -- 27
2019-06-17 12:00:00 25.7 3 Oeste 13 Noroeste 0 -- -- 27
2019-06-17 11:00:00 23.3 4 Noroeste 7 Noroeste 0 -- -- 36
2019-06-17 10:00:00 18.6 0 Calma 3 Oeste 0 -- -- 58
2019-06-17 09:00:00 15.3 2 Este 5 Nordeste 0 -- -- 71
2019-06-17 08:00:00 13.4 3 Sudeste 7 Sur 0 -- -- 74
2019-06-17 07:00:00 13.9 0 Calma 4 Sudeste 0 -- -- 72
2019-06-17 06:00:00 14.8 2 Sudeste 6 Nordeste 0 -- -- 67
2019-06-17 05:00:00 15.6 0 Calma 5 Sudeste 0 -- -- 63
2019-06-17 04:00:00 16.7 0 Calma 4 Oeste 0 -- -- 59
2019-06-17 03:00:00 18.1 2 Sudeste 8 Noroeste 0 -- -- 54
2019-06-17 02:00:00 19.4 0 Calma 27 Sur 0 -- -- 50
2019-06-17 01:00:00 20.5 8 Sur 24 Sur 0 -- -- 47
2019-06-17 00:00:00 20.8 6 Sur 31 Sudeste 0 -- -- 47
2019-06-16 23:00:00 21 6 Sur 22 Sudeste 0 -- -- 48
2019-06-16 22:00:00 21.8 8 Sudeste 16 Sur 0 -- -- 48
2019-06-16 21:00:00 23.4 4 Este 12 Sudeste 0 -- -- 42
2019-06-16 20:00:00 24.4 2 Sur 13 Sudeste 0 -- -- 40
2019-06-16 19:00:00 25.3 3 Sudeste 17 Sudeste 0 -- -- 39
2019-06-16 18:00:00 26.7 6 Sudeste 16 Noroeste 0 -- -- 36
2019-06-16 17:00:00 26.6 7 Noroeste 19 Noroeste 0 -- -- 29
2019-06-16 16:00:00 28.2 5 Noroeste 22 Sudeste 0 -- -- 26
2019-06-16 15:00:00 26.4 6 Sudoeste 19 Oeste 0 -- -- 27
2019-06-16 14:00:00 25.4 4 Oeste 20 Oeste 0 -- -- 29
2019-06-16 13:00:00 23.4 6 Noroeste 17 Noroeste 0 -- -- 36
2019-06-16 12:00:00 20.9 8 Noroeste 21 Norte 0 -- -- 43
2019-06-16 11:00:00 18.8 5 Noroeste 14 Nordeste 0 -- -- 48
2019-06-16 10:00:00 13.8 0 Calma 4 Sudoeste 0 -- -- 64
2019-06-16 09:00:00 9.5 0 Calma 4 Este 0 -- -- 76
2019-06-16 08:00:00 7.9 0 Calma 4 Sudeste 0 -- -- 79
2019-06-16 07:00:00 7.7 0 Calma 4 Sudoeste 0 -- -- 78
2019-06-16 06:00:00 8.2 0 Calma 4 Noroeste 0 -- -- 76
2019-06-16 05:00:00 8.9 0 Calma 3 Noroeste 0 -- -- 75
2019-06-16 04:00:00 10.3 0 Calma 5 Norte 0 -- -- 69
2019-06-16 03:00:00 11.3 2 Norte 6 Norte 0 -- -- 65
2019-06-16 02:00:00 13.3 0 Calma 4 Sur 0 -- -- 59
2019-06-16 01:00:00 14.7 0 Calma 6 Sudeste 0 -- -- 53
2019-06-16 00:00:00 15.9 0 Calma 4 Sudeste 0 -- -- 50